Time;durP1;ratioP1;P1;durP2;ratioP2;P2;SDS_P1;SDS_P2;PMS_P1;PMS_P2;Temp;Humidity;BMP_temperature;BMP_pressure;BME280_temperature;BME280_humidity;BME280_pressure;Samples;Min_cycle;Max_cycle;Signal;HPM_P1;HPM_P2
2023/10/22 00:01:37;;;;;;;7.82;1.95;;;12.10;99.90;;;11.31;100.00;99948.53;4153211;28;20025;-76
2023/10/22 00:03:38;;;;;;;11.30;2.15;;;12.10;99.90;;;11.22;100.00;99957.53;4153379;28;20057;-77
2023/10/22 00:05:40;;;;;;;12.98;2.05;;;12.00;99.90;;;11.19;100.00;99954.41;4135934;28;20061;-77
2023/10/22 00:07:41;;;;;;;14.15;3.63;;;11.90;99.90;;;11.12;100.00;99951.66;4159297;28;20048;-76
2023/10/22 00:09:42;;;;;;;8.55;1.88;;;11.90;99.90;;;11.07;100.00;99951.41;4155006;28;20026;-77
2023/10/22 00:11:42;;;;;;;11.82;1.83;;;11.90;99.90;;;11.02;100.00;99959.81;4135355;28;20042;-76
2023/10/22 00:13:43;;;;;;;11.32;1.88;;;11.80;99.90;;;10.99;100.00;99967.31;4153176;28;20362;-76
2023/10/22 00:15:44;;;;;;;14.80;2.13;;;11.80;99.90;;;10.94;100.00;99959.09;4153234;28;20103;-76
2023/10/22 00:17:45;;;;;;;7.63;1.85;;;11.70;99.90;;;10.89;100.00;99958.81;4153109;28;20021;-77
2023/10/22 00:19:47;;;;;;;11.25;1.70;;;11.70;99.90;;;10.83;100.00;99954.22;4161165;28;20029;-77
2023/10/22 00:21:48;;;;;;;8.15;2.00;;;11.60;99.90;;;10.82;100.00;99963.13;4135756;28;20076;-76
2023/10/22 00:23:49;;;;;;;7.10;2.15;;;11.60;99.90;;;10.79;100.00;99972.22;4153203;28;20037;-76
2023/10/22 00:25:49;;;;;;;10.05;1.95;;;11.60;99.90;;;10.71;100.00;99967.00;4152942;28;20034;-77
2023/10/22 00:27:51;;;;;;;11.43;2.60;;;11.50;99.90;;;10.66;100.00;99971.19;4135514;28;20034;-76
2023/10/22 00:29:52;;;;;;;6.45;2.20;;;11.50;99.90;;;10.66;100.00;99982.56;4152915;28;20152;-76
2023/10/22 00:31:53;;;;;;;9.27;2.42;;;11.40;99.90;;;10.63;100.00;99975.00;4152592;28;20026;-76
2023/10/22 00:33:54;;;;;;;8.05;2.35;;;11.40;99.90;;;10.57;100.00;99980.97;4152771;28;20022;-77
2023/10/22 00:35:58;;;;;;;12.80;3.45;;;11.30;99.90;;;10.53;100.00;99990.22;4153259;28;20022;-77
2023/10/22 00:37:59;;;;;;;11.07;2.50;;;11.30;99.90;;;10.50;100.00;99990.56;4152751;28;20033;-77
2023/10/22 00:40:00;;;;;;;14.70;2.30;;;11.30;99.90;;;10.52;100.00;99988.56;4152870;28;20405;-76
2023/10/22 00:42:01;;;;;;;9.75;2.60;;;11.30;99.90;;;10.55;100.00;99989.03;4152523;28;20018;-76
2023/10/22 00:44:02;;;;;;;16.15;2.40;;;11.30;99.90;;;10.60;100.00;99987.69;4152959;28;20030;-77
2023/10/22 00:46:03;;;;;;;11.77;2.83;;;11.40;99.90;;;10.68;100.00;99992.91;4135325;28;20114;-77
2023/10/22 00:48:06;;;;;;;10.13;1.65;;;11.40;99.90;;;10.71;100.00;99989.94;4135433;28;20030;-77
2023/10/22 00:50:08;;;;;;;10.47;2.47;;;11.50;99.90;;;10.75;100.00;99986.75;4135258;28;20026;-76
2023/10/22 00:52:11;;;;;;;14.23;2.72;;;11.50;99.90;;;10.83;100.00;99992.00;4135277;28;20269;-76
2023/10/22 00:54:14;;;;;;;13.50;2.28;;;11.60;99.90;;;10.90;100.00;99992.13;4142006;28;20026;-77
2023/10/22 00:56:15;;;;;;;11.57;1.95;;;11.70;99.90;;;10.96;100.00;99996.69;4158557;28;20481;-77
2023/10/22 00:58:19;;;;;;;12.02;2.13;;;11.70;99.90;;;10.98;100.00;99999.97;4145815;28;20029;-77
2023/10/22 01:00:21;;;;;;;12.05;2.85;;;11.70;99.90;;;10.95;100.00;99998.50;4151827;28;20028;-77
2023/10/22 01:02:23;;;;;;;10.07;2.33;;;11.70;99.90;;;10.85;100.00;100000.53;4151339;28;20112;-76
2023/10/22 01:04:25;;;;;;;9.40;2.65;;;11.60;99.90;;;10.80;100.00;100005.53;4151390;28;20034;-77
2023/10/22 01:06:26;;;;;;;16.45;2.50;;;11.60;99.90;;;10.71;100.00;100011.84;4168713;28;20075;-76
2023/10/22 01:08:27;;;;;;;14.63;2.47;;;11.50;99.90;;;10.59;100.00;100007.97;4151542;28;20393;-77
2023/10/22 01:10:28;;;;;;;9.70;1.77;;;11.40;99.90;;;10.52;100.00;100009.66;4151303;28;20022;-76
2023/10/22 01:12:37;;;;;;;21.40;3.22;;;11.30;99.90;;;10.44;100.00;100010.53;4167538;28;20479;-76
2023/10/22 01:14:38;;;;;;;8.82;2.00;;;11.30;99.90;;;10.39;100.00;100017.31;4136215;28;20022;-76
2023/10/22 01:16:39;;;;;;;9.45;2.00;;;11.20;99.90;;;10.32;100.00;100011.09;4152431;28;20056;-76
2023/10/22 01:18:40;;;;;;;8.70;1.73;;;11.10;99.90;;;10.25;100.00;100015.38;4138177;28;20030;-76
2023/10/22 01:20:41;;;;;;;14.23;1.75;;;11.10;99.90;;;10.23;100.00;100015.56;4139253;28;20023;-77
2023/10/22 01:22:42;;;;;;;13.57;2.53;;;11.00;99.90;;;10.17;100.00;100025.97;4152184;28;20152;-77
2023/10/22 01:24:43;;;;;;;12.40;2.97;;;10.90;99.90;;;10.13;100.00;100029.91;4135098;28;20113;-76
2023/10/22 01:26:45;;;;;;;8.45;1.83;;;10.90;99.90;;;10.09;100.00;100029.44;4152087;28;20111;-77
2023/10/22 01:28:46;;;;;;;13.60;3.17;;;10.90;99.90;;;10.08;100.00;100033.06;4134848;28;20029;-77
2023/10/22 01:30:47;;;;;;;16.77;2.08;;;10.80;99.90;;;10.04;100.00;100034.38;4134606;28;20522;-76
2023/10/22 01:32:48;;;;;;;13.27;2.28;;;10.80;99.90;;;10.02;100.00;100036.38;4152277;28;20105;-76
2023/10/22 01:34:49;;;;;;;9.20;2.10;;;10.80;99.90;;;9.98;100.00;100032.41;4152232;28;20038;-77
2023/10/22 01:36:50;;;;;;;14.43;2.53;;;10.80;99.90;;;9.94;100.00;100031.97;4152230;28;20481;-76
2023/10/22 01:38:51;;;;;;;12.68;3.33;;;10.70;99.90;;;9.93;100.00;100034.75;4151963;28;20022;-76
2023/10/22 01:40:52;;;;;;;12.02;2.15;;;10.70;99.90;;;9.90;100.00;100035.09;4158554;28;20033;-76
2023/10/22 01:42:53;;;;;;;14.27;2.70;;;10.70;99.90;;;9.87;100.00;100036.25;4152200;28;20029;-76
2023/10/22 01:44:54;;;;;;;15.45;2.22;;;10.70;99.90;;;9.84;100.00;100039.22;4155520;28;20026;-76
2023/10/22 01:46:55;;;;;;;13.43;2.03;;;10.60;99.90;;;9.87;100.00;100056.50;4155485;28;20026;-77
2023/10/22 01:48:55;;;;;;;13.48;2.40;;;10.70;99.90;;;9.88;100.00;100048.44;4155284;28;20393;-76
2023/10/22 01:50:56;;;;;;;13.27;2.45;;;10.60;99.90;;;9.88;100.00;100042.34;4155460;28;20026;-77
2023/10/22 01:52:57;;;;;;;14.45;2.58;;;10.70;99.90;;;9.87;100.00;100049.41;4155219;28;20022;-76
2023/10/22 01:54:58;;;;;;;11.20;1.88;;;10.70;99.90;;;9.84;100.00;100052.38;4150885;28;20052;-77
2023/10/22 01:56:59;;;;;;;12.07;2.17;;;10.70;99.90;;;9.83;100.00;100063.91;4154034;28;20061;-77
2023/10/22 01:59:00;;;;;;;11.45;2.05;;;10.60;99.90;;;9.77;100.00;100056.66;4164911;28;20030;-76
2023/10/22 02:01:03;;;;;;;7.40;2.35;;;10.60;99.90;;;9.70;100.00;100058.34;4155415;28;20026;-76
2023/10/22 02:03:04;;;;;;;6.82;1.65;;;10.50;99.90;;;9.63;100.00;100064.44;4137807;28;20038;-76
2023/10/22 02:05:06;;;;;;;6.68;1.48;;;10.50;99.90;;;9.59;100.00;100066.56;4138069;28;20429;-77
2023/10/22 02:07:07;;;;;;;10.40;1.70;;;10.40;99.90;;;9.50;100.00;100064.94;4155312;28;20788;-76
2023/10/22 02:09:08;;;;;;;10.90;2.13;;;10.30;99.90;;;9.44;100.00;100065.59;4155126;28;20030;-77
2023/10/22 02:11:09;;;;;;;11.70;1.90;;;10.30;99.90;;;9.38;100.00;100076.78;4154782;28;20037;-76
2023/10/22 02:13:10;;;;;;;11.68;1.75;;;10.20;99.90;;;9.32;100.00;100069.53;4137164;28;20026;-76
2023/10/22 02:15:11;;;;;;;8.90;1.60;;;10.10;99.90;;;9.23;100.00;100067.88;4155066;28;20433;-76
2023/10/22 02:17:12;;;;;;;10.75;2.00;;;10.10;99.90;;;9.19;100.00;100082.38;4137606;28;20027;-76
2023/10/22 02:19:13;;;;;;;9.48;1.50;;;10.00;99.90;;;9.13;100.00;100090.91;4162640;28;20033;-76
2023/10/22 02:21:14;;;;;;;10.23;2.58;;;10.00;99.90;;;9.08;100.00;100085.34;4155092;28;20032;-76
2023/10/22 02:23:15;;;;;;;10.77;2.65;;;9.90;99.90;;;9.03;100.00;100087.59;4154767;28;20034;-75
2023/10/22 02:25:15;;;;;;;8.27;1.65;;;9.80;99.90;;;8.99;100.00;100087.09;4154929;28;20022;-76
2023/10/22 02:27:17;;;;;;;7.18;1.55;;;9.80;99.90;;;8.95;100.00;100092.84;4161180;28;20027;-76
2023/10/22 02:29:18;;;;;;;10.73;1.77;;;9.70;99.90;;;8.90;100.00;100088.06;4154899;28;20029;-76
2023/10/22 02:31:19;;;;;;;11.63;1.85;;;9.70;99.90;;;8.86;100.00;100095.47;4154884;28;20029;-76
2023/10/22 02:33:19;;;;;;;6.38;1.60;;;9.70;99.90;;;8.82;100.00;100104.66;4154812;28;20030;-76
2023/10/22 02:35:21;;;;;;;8.90;1.90;;;9.60;99.90;;;8.79;100.00;100104.97;4154641;28;20389;-77
2023/10/22 02:37:21;;;;;;;12.98;1.65;;;9.60;99.90;;;8.75;100.00;100103.66;4154547;28;20459;-76
2023/10/22 02:39:22;;;;;;;9.27;1.20;;;9.50;99.90;;;8.73;100.00;100105.63;4137302;28;20026;-76
2023/10/22 02:41:23;;;;;;;3.00;1.23;;;9.50;99.90;;;8.72;100.00;100106.59;4154540;28;20022;-76
2023/10/22 02:43:24;;;;;;;11.25;1.70;;;9.50;99.90;;;8.67;100.00;100095.75;4154695;28;20036;-76
2023/10/22 02:45:25;;;;;;;14.07;2.50;;;9.50;99.90;;;8.68;100.00;100110.53;4137110;28;20486;-76
2023/10/22 02:47:26;;;;;;;10.43;1.85;;;9.50;99.90;;;8.68;100.00;100113.16;4154703;28;20030;-76
2023/10/22 02:49:27;;;;;;;12.55;1.90;;;9.50;99.90;;;8.68;100.00;100115.81;4154600;28;20052;-77
2023/10/22 02:51:28;;;;;;;11.20;1.50;;;9.50;99.90;;;8.64;100.00;100114.47;4153180;28;20029;-76
2023/10/22 02:53:28;;;;;;;8.63;1.50;;;9.50;99.90;;;8.67;100.00;100119.41;4137837;28;20532;-76
2023/10/22 02:55:29;;;;;;;7.10;1.45;;;9.50;99.90;;;8.68;100.00;100130.75;4166170;28;20033;-77
2023/10/22 02:57:30;;;;;;;10.00;1.67;;;9.50;99.90;;;8.68;100.00;100133.38;4136670;28;20018;-76
2023/10/22 02:59:31;;;;;;;9.68;2.22;;;9.50;99.90;;;8.70;100.00;100132.22;4155206;28;20022;-76
2023/10/22 03:01:32;;;;;;;9.32;1.50;;;9.50;99.90;;;8.72;100.00;100127.63;4154307;28;20025;-77
2023/10/22 03:03:41;;;;;;;8.43;1.50;;;9.60;99.90;;;8.82;100.00;100130.13;4137042;28;20560;-76
2023/10/22 03:05:41;;;;;;;16.05;1.83;;;9.60;99.90;;;8.89;100.00;100129.34;4154328;28;20485;-76
2023/10/22 03:07:42;;;;;;;6.80;1.55;;;9.70;99.90;;;8.96;100.00;100134.78;4154280;28;20033;-76
2023/10/22 03:09:43;;;;;;;10.63;1.75;;;9.70;99.90;;;9.04;100.00;100141.88;4154104;28;20026;-76
2023/10/22 03:11:44;;;;;;;13.18;1.80;;;9.80;99.90;;;9.11;100.00;100137.63;4153845;28;20045;-76
2023/10/22 03:13:51;;;;;;;12.70;2.60;;;9.90;99.90;;;9.22;100.00;100138.13;4146502;28;20026;-77
2023/10/22 03:15:52;;;;;;;8.20;2.28;;;10.00;99.90;;;9.28;100.00;100139.28;4170493;28;20080;-76
2023/10/22 03:17:56;;;;;;;14.40;3.45;;;10.00;99.90;;;9.35;100.00;100145.53;4170244;28;20045;-76
2023/10/22 03:19:57;;;;;;;11.73;2.00;;;10.10;99.90;;;9.42;100.00;100143.91;4164499;28;20088;-76
2023/10/22 03:21:58;;;;;;;8.32;1.25;;;10.10;99.90;;;9.47;100.00;100156.59;4154050;28;20029;-77
2023/10/22 03:23:59;;;;;;;10.70;1.83;;;10.20;99.90;;;9.55;100.00;100162.69;4136500;28;20544;-76
2023/10/22 03:26:07;;;;;;;9.98;1.70;;;10.30;99.90;;;9.64;100.00;100158.25;4153872;28;20033;-76
2023/10/22 03:28:08;;;;;;;13.27;2.50;;;10.30;99.90;;;9.71;100.00;100167.94;4153751;28;20030;-76
2023/10/22 03:30:10;;;;;;;11.98;1.85;;;10.40;99.90;;;9.74;100.00;100172.88;4152661;28;20447;-77
2023/10/22 03:32:11;;;;;;;10.05;2.05;;;10.50;99.90;;;9.78;100.00;100171.59;4136447;28;20034;-76
2023/10/22 03:34:12;;;;;;;8.90;2.55;;;10.50;99.90;;;9.79;100.00;100170.59;4153900;28;20022;-77
2023/10/22 03:36:14;;;;;;;18.85;2.88;;;10.50;99.90;;;9.81;100.00;100173.88;4153850;28;20017;-77
2023/10/22 03:38:15;;;;;;;14.80;2.63;;;10.60;99.90;;;9.83;100.00;100177.16;4153626;28;20026;-77
2023/10/22 03:40:16;;;;;;;11.45;2.17;;;10.60;99.90;;;9.93;100.00;100187.56;4153900;28;20034;-77
2023/10/22 03:42:16;;;;;;;8.35;1.80;;;10.70;99.90;;;9.96;100.00;100188.03;4136107;28;20062;-77
2023/10/22 03:44:17;;;;;;;13.27;2.38;;;10.70;99.90;;;9.97;100.00;100189.66;4153756;28;20026;-77
2023/10/22 03:46:18;;;;;;;18.95;2.88;;;10.70;99.90;;;9.94;100.00;100183.94;4153769;28;20481;-76
2023/10/22 03:48:19;;;;;;;12.85;2.00;;;10.70;99.90;;;9.93;100.00;100190.19;4136175;28;20081;-77
2023/10/22 03:50:20;;;;;;;15.57;3.03;;;10.70;99.90;;;9.91;100.00;100193.00;4153460;28;20034;-76
2023/10/22 03:52:21;;;;;;;14.80;2.70;;;10.70;99.90;;;9.95;100.00;100193.47;4136259;28;20077;-77
2023/10/22 03:54:22;;;;;;;17.27;3.30;;;10.70;99.90;;;9.96;100.00;100185.41;4144392;28;20038;-76
2023/10/22 03:56:23;;;;;;;17.33;3.03;;;10.70;99.90;;;9.98;100.00;100178.16;4158097;28;20026;-76
2023/10/22 03:58:25;;;;;;;13.80;2.35;;;10.70;99.90;;;9.92;100.00;100184.09;4155400;28;20061;-76
2023/10/22 04:00:25;;;;;;;18.60;2.22;;;10.70;99.90;;;9.87;100.00;100185.56;4136182;28;20464;-77
2023/10/22 04:02:26;;;;;;;11.70;1.77;;;10.60;99.90;;;9.80;100.00;100203.84;4153299;28;20026;-76
2023/10/22 04:04:27;;;;;;;11.82;2.10;;;10.60;99.90;;;9.76;100.00;100193.81;4153612;28;20386;-77
2023/10/22 04:06:28;;;;;;;12.75;2.40;;;10.60;99.90;;;9.72;100.00;100192.47;4149256;28;20076;-77
2023/10/22 04:08:29;;;;;;;12.25;2.67;;;10.50;99.90;;;9.73;100.00;100197.59;4169709;28;20029;-77
2023/10/22 04:10:30;;;;;;;13.07;2.05;;;10.50;99.90;;;9.72;100.00;100201.22;4169735;28;20052;-77
2023/10/22 04:12:32;;;;;;;16.80;2.13;;;10.50;99.90;;;9.69;100.00;100195.44;4169116;28;20105;-77
2023/10/22 04:14:36;;;;;;;12.02;1.98;;;10.40;99.90;;;9.66;100.00;100203.66;4169447;28;20033;-77
2023/10/22 04:16:37;;;;;;;15.70;2.67;;;10.40;99.90;;;9.69;100.00;100213.88;4152425;28;20113;-77
2023/10/22 04:18:38;;;;;;;16.65;3.10;;;10.50;99.90;;;9.70;100.00;100213.72;4168114;28;20021;-76
2023/10/22 04:20:40;;;;;;;8.38;2.10;;;10.50;99.90;;;9.69;100.00;100212.06;4159042;28;20401;-76
2023/10/22 04:22:42;;;;;;;13.85;2.70;;;10.50;99.90;;;9.66;100.00;100212.41;4135779;28;20576;-75
2023/10/22 04:24:45;;;;;;;15.80;2.63;;;10.50;99.90;;;9.62;100.00;100216.34;4135451;28;20031;-76
2023/10/22 04:26:46;;;;;;;21.52;2.92;;;10.40;99.90;;;9.58;100.00;100219.47;4152889;28;20540;-76
2023/10/22 04:28:47;;;;;;;6.22;1.75;;;10.40;99.90;;;9.53;100.00;100227.84;4153014;28;20021;-77
2023/10/22 04:30:48;;;;;;;15.52;1.85;;;10.40;99.90;;;9.52;100.00;100230.66;4161288;28;20394;-76
2023/10/22 04:32:49;;;;;;;10.13;1.90;;;10.30;99.90;;;9.54;100.00;100234.75;4152916;28;20065;-77
2023/10/22 04:34:50;;;;;;;15.30;2.58;;;10.40;99.90;;;9.57;100.00;100230.97;4155370;28;20075;-77
2023/10/22 04:36:51;;;;;;;7.93;1.55;;;10.40;99.90;;;9.59;100.00;100232.44;4158700;28;20025;-76
2023/10/22 04:38:52;;;;;;;17.45;2.47;;;10.40;99.90;;;9.61;100.00;100229.69;4135183;28;20030;-76
2023/10/22 04:40:52;;;;;;;11.43;1.85;;;10.40;99.90;;;9.55;100.00;100233.78;4157144;28;20029;-76
2023/10/22 04:42:59;;;;;;;5.68;1.45;;;10.40;99.90;;;9.51;100.00;100229.00;4147030;28;20029;-76
2023/10/22 04:45:00;;;;;;;9.60;2.20;;;10.30;99.90;;;9.42;100.00;100223.72;4169216;28;20500;-76
2023/10/22 04:47:02;;;;;;;8.20;1.88;;;10.20;99.90;;;9.38;100.00;100218.91;4151496;28;20037;-77
2023/10/22 04:49:03;;;;;;;9.40;2.45;;;10.20;99.90;;;9.31;100.00;100223.19;4169189;28;20025;-77
2023/10/22 04:51:07;;;;;;;8.23;2.15;;;10.10;99.90;;;9.24;100.00;100225.63;4151568;28;20061;-77
2023/10/22 04:53:08;;;;;;;6.18;1.10;;;10.10;99.90;;;9.22;100.00;100226.78;4169081;28;20021;-77
2023/10/22 04:55:13;;;;;;;6.90;1.23;;;10.10;99.90;;;9.22;100.00;100226.78;4151503;28;20034;-76
2023/10/22 04:57:13;;;;;;;8.23;2.35;;;10.00;99.90;;;9.24;100.00;100227.44;4168666;28;20108;-76
2023/10/22 04:59:14;;;;;;;9.15;1.73;;;10.10;99.90;;;9.21;100.00;100230.38;4160513;28;20025;-76
2023/10/22 05:01:15;;;;;;;11.00;1.80;;;10.00;99.90;;;9.20;100.00;100234.03;4153390;28;20021;-76
2023/10/22 05:03:16;;;;;;;10.75;1.63;;;10.10;99.90;;;9.21;100.00;100235.66;4134914;28;20033;-76
2023/10/22 05:05:19;;;;;;;10.77;1.52;;;10.00;99.90;;;9.18;100.00;100234.16;4152569;28;20481;-77
2023/10/22 05:07:20;;;;;;;10.32;1.77;;;10.00;99.90;;;9.13;100.00;100230.38;4135277;28;20522;-76
2023/10/22 05:09:21;;;;;;;6.93;1.48;;;9.90;99.90;;;9.08;100.00;100237.94;4152483;28;20030;-76
2023/10/22 05:11:22;;;;;;;7.63;1.83;;;9.90;99.90;;;8.98;100.00;100234.59;4163463;28;20045;-76
2023/10/22 05:13:23;;;;;;;10.18;1.80;;;9.80;99.90;;;8.93;100.00;100228.97;4152523;28;20093;-76
2023/10/22 05:15:24;;;;;;;7.28;2.17;;;9.80;99.90;;;8.87;100.00;100231.25;4152586;28;20026;-76
2023/10/22 05:17:25;;;;;;;8.45;1.50;;;9.70;99.90;;;8.83;100.00;100235.19;4134981;28;20022;-76
2023/10/22 05:19:26;;;;;;;4.45;1.05;;;9.70;99.90;;;8.84;100.00;100238.66;4159357;28;20029;-76
2023/10/22 05:21:27;;;;;;;10.15;1.52;;;9.70;99.90;;;8.80;100.00;100235.50;4161330;28;20026;-76
2023/10/22 05:23:28;;;;;;;8.00;1.90;;;9.60;99.90;;;8.79;100.00;100239.09;4152688;28;20041;-76
2023/10/22 05:25:29;;;;;;;7.03;1.40;;;9.60;99.90;;;8.76;100.00;100247.31;4152474;28;20018;-76
2023/10/22 05:27:30;;;;;;;9.25;1.45;;;9.60;99.90;;;8.73;100.00;100244.97;4152063;28;20040;-76
2023/10/22 05:29:31;;;;;;;6.97;1.60;;;9.60;99.90;;;8.77;100.00;100241.06;4135028;28;20027;-77
2023/10/22 05:31:32;;;;;;;14.48;2.70;;;9.60;99.90;;;8.81;100.00;100242.38;4158843;28;20038;-76
2023/10/22 05:33:33;;;;;;;16.60;2.58;;;9.60;99.90;;;8.80;100.00;100251.28;4134878;28;20545;-76
2023/10/22 05:35:37;;;;;;;5.55;1.20;;;9.60;99.90;;;8.80;100.00;100246.00;4151000;28;20026;-76
2023/10/22 05:37:43;;;;;;;13.43;1.83;;;9.60;99.90;;;8.76;100.00;100260.44;4152371;28;20030;-76
2023/10/22 05:39:46;;;;;;;8.23;2.13;;;9.60;99.90;;;8.72;100.00;100256.47;4134877;28;20030;-76
2023/10/22 05:41:46;;;;;;;11.45;2.10;;;9.60;99.90;;;8.73;100.00;100254.66;4156035;28;20026;-76
2023/10/22 05:43:52;;;;;;;6.93;1.27;;;9.50;99.90;;;8.69;100.00;100251.53;4162638;28;20485;-76
2023/10/22 05:45:56;;;;;;;7.20;1.48;;;9.60;99.90;;;8.78;100.00;100247.16;4134934;28;20094;-76
2023/10/22 05:47:57;;;;;;;13.13;2.20;;;9.60;99.90;;;8.83;100.00;100244.88;4152243;28;20509;-76
2023/10/22 05:49:59;;;;;;;9.00;1.40;;;9.70;99.90;;;8.94;100.00;100254.28;4135688;28;20089;-76
2023/10/22 05:52:00;;;;;;;6.15;1.25;;;9.70;99.90;;;9.01;100.00;100250.88;4152159;28;20030;-76
2023/10/22 05:54:05;;;;;;;9.15;1.50;;;9.80;99.90;;;9.11;100.00;100256.03;4157536;28;20026;-76
2023/10/22 05:56:06;;;;;;;12.75;1.83;;;9.90;99.90;;;9.21;100.00;100261.97;4158953;28;20097;-76
2023/10/22 05:58:07;;;;;;;8.20;1.17;;;10.00;99.90;;;9.27;100.00;100270.06;4152267;28;20018;-76
2023/10/22 06:00:08;;;;;;;8.10;1.65;;;10.00;99.90;;;9.32;100.00;100269.56;4137078;28;20081;-76
2023/10/22 06:02:09;;;;;;;10.65;1.67;;;10.00;99.90;;;9.30;100.00;100267.09;4145177;28;20026;-76
2023/10/22 06:04:10;;;;;;;11.50;1.98;;;10.10;99.90;;;9.34;100.00;100262.34;4134507;28;20030;-76
2023/10/22 06:06:11;;;;;;;9.15;2.00;;;10.10;99.90;;;9.37;100.00;100264.66;4152042;28;20128;-76
2023/10/22 06:08:12;;;;;;;10.60;1.48;;;10.10;99.90;;;9.38;100.00;100266.28;4151929;28;20101;-76
2023/10/22 06:10:13;;;;;;;9.35;1.65;;;10.10;99.90;;;9.37;100.00;100254.13;4154662;28;20022;-76
2023/10/22 06:12:14;;;;;;;12.10;1.63;;;10.20;99.90;;;9.34;100.00;100250.03;4141494;28;20078;-76
2023/10/22 06:14:15;;;;;;;8.32;1.33;;;10.10;99.90;;;9.31;100.00;100244.25;4151954;28;20048;-76
2023/10/22 06:16:16;;;;;;;10.65;1.95;;;10.10;99.90;;;9.32;100.00;100259.88;4134406;28;20482;-76
2023/10/22 06:18:17;;;;;;;11.55;1.95;;;10.10;99.90;;;9.34;100.00;100262.34;4151983;28;20076;-76
2023/10/22 06:20:18;;;;;;;12.20;1.85;;;10.10;99.90;;;9.31;100.00;100265.31;4163060;28;20067;-76
2023/10/22 06:22:19;;;;;;;10.48;1.77;;;10.10;99.90;;;9.27;100.00;100264.78;4156347;28;20026;-76
2023/10/22 06:24:21;;;;;;;13.55;1.80;;;10.10;99.90;;;9.25;100.00;100265.94;4151794;28;20034;-76
2023/10/22 06:26:22;;;;;;;12.25;2.20;;;10.10;99.90;;;9.21;100.00;100275.94;4152484;28;20026;-76
2023/10/22 06:28:23;;;;;;;10.20;1.40;;;10.00;99.90;;;9.17;100.00;100271.97;4159814;28;20489;-76
2023/10/22 06:30:25;;;;;;;7.07;1.40;;;10.00;99.90;;;9.13;100.00;100273.31;4158192;28;20114;-76
2023/10/22 06:32:26;;;;;;;11.57;1.42;;;9.90;99.90;;;9.11;100.00;100285.78;4156007;28;20034;-77
2023/10/22 06:34:27;;;;;;;9.65;1.42;;;9.90;99.90;;;9.07;100.00;100284.44;4154776;28;20080;-76
2023/10/22 06:36:27;;;;;;;7.85;1.48;;;9.90;99.90;;;9.02;100.00;100278.81;4157023;28;20029;-76
2023/10/22 06:38:28;;;;;;;12.75;1.77;;;9.80;99.90;;;8.99;100.00;100286.22;4159467;28;20021;-76
2023/10/22 06:40:29;;;;;;;6.68;1.45;;;9.80;99.90;;;8.97;100.00;100288.16;4157473;28;20076;-76
2023/10/22 06:42:30;;;;;;;8.38;2.28;;;9.80;99.90;;;8.95;100.00;100296.22;4154517;28;20030;-76
2023/10/22 06:44:31;;;;;;;8.30;1.80;;;9.70;99.90;;;8.95;100.00;100295.41;4154634;28;20040;-76
2023/10/22 06:46:31;;;;;;;10.93;1.58;;;9.80;99.90;;;8.97;100.00;100302.16;4159080;28;20489;-76
2023/10/22 06:48:32;;;;;;;10.68;1.83;;;9.80;99.90;;;8.99;100.00;100304.63;4156643;28;20022;-76
2023/10/22 06:50:33;;;;;;;10.30;1.27;;;9.80;99.90;;;9.01;100.00;100306.13;4155100;28;20032;-76
2023/10/22 06:52:38;;;;;;;10.43;1.95;;;9.80;99.90;;;9.01;100.00;100315.81;4154394;28;20033;-76
2023/10/22 06:54:39;;;;;;;7.03;1.02;;;9.80;99.90;;;8.98;100.00;100309.06;4147579;28;20021;-76
2023/10/22 06:56:40;;;;;;;6.07;0.93;;;9.80;99.90;;;8.92;100.00;100311.50;4156495;28;20554;-75
2023/10/22 06:58:41;;;;;;;11.77;1.65;;;9.80;99.90;;;8.90;100.00;100314.25;4155400;28;20080;-76
2023/10/22 07:00:43;;;;;;;8.18;1.40;;;9.70;99.90;;;8.89;100.00;100312.63;4142883;28;20485;-76
2023/10/22 07:02:45;;;;;;;11.85;1.45;;;9.70;99.90;;;8.84;100.00;100314.91;4160173;28;20030;-76
2023/10/22 07:04:55;;;;;;;8.52;1.33;;;9.70;99.90;;;8.85;100.00;100324.44;4154269;28;20092;-76
2023/10/22 07:06:56;;;;;;;6.70;1.30;;;9.70;99.90;;;8.81;100.00;100326.53;4137036;28;20525;-76
2023/10/22 07:08:57;;;;;;;6.03;1.15;;;9.60;99.90;;;8.76;100.00;100334.09;4137000;28;20023;-76
2023/10/22 07:10:58;;;;;;;12.45;1.40;;;9.60;99.90;;;8.77;100.00;100337.53;4162047;28;20024;-77
2023/10/22 07:12:59;;;;;;;7.13;1.55;;;9.60;99.90;;;8.75;100.00;100336.88;4155384;28;20390;-76
2023/10/22 07:15:00;;;;;;;4.45;1.13;;;9.60;99.90;;;8.75;100.00;100345.56;4154194;28;20026;-76
2023/10/22 07:17:00;;;;;;;9.35;1.67;;;9.60;99.90;;;8.74;100.00;100341.31;4154043;28;20025;-76
2023/10/22 07:19:01;;;;;;;5.55;1.20;;;9.50;99.90;;;8.71;100.00;100346.03;4160179;28;20018;-76
2023/10/22 07:21:02;;;;;;;6.70;1.15;;;9.50;99.90;;;8.68;100.00;100347.19;4162530;28;20097;-76
2023/10/22 07:23:04;;;;;;;3.45;1.30;;;9.50;99.90;;;8.68;100.00;100351.59;4154141;28;20113;-76
2023/10/22 07:25:06;;;;;;;5.82;1.25;;;9.50;99.90;;;8.66;100.00;100356.22;4154046;28;20030;-76
2023/10/22 07:27:07;;;;;;;9.85;1.63;;;9.50;99.90;;;8.67;100.00;100361.28;4153673;28;20041;-76
2023/10/22 07:29:07;;;;;;;4.63;1.80;;;9.50;99.90;;;8.67;100.00;100361.28;4153816;28;20025;-76
2023/10/22 07:31:09;;;;;;;8.07;1.83;;;9.50;99.90;;;8.68;100.00;100365.59;4158514;28;20030;-76
2023/10/22 07:33:10;;;;;;;11.10;1.00;;;9.40;99.90;;;8.69;100.00;100372.47;4154160;28;20026;-76
2023/10/22 07:35:14;;;;;;;6.88;1.25;;;9.50;99.90;;;8.71;100.00;100364.44;4154208;28;20018;-76
2023/10/22 07:37:15;;;;;;;9.75;0.98;;;9.40;99.90;;;8.73;100.00;100373.84;4153684;28;20053;-76
2023/10/22 07:39:16;;;;;;;6.43;1.50;;;9.50;99.90;;;8.74;100.00;100364.16;4153680;28;20025;-76
2023/10/22 07:41:19;;;;;;;6.72;1.25;;;9.50;99.90;;;8.74;100.00;100372.88;4154511;28;20079;-75
2023/10/22 07:43:20;;;;;;;7.27;1.80;;;9.50;99.90;;;8.78;100.00;100384.72;4136588;28;20034;-76
2023/10/22 07:45:21;;;;;;;8.63;1.25;;;9.60;99.90;;;8.80;100.00;100374.88;4153561;28;20033;-76
2023/10/22 07:47:22;;;;;;;7.60;1.52;;;9.60;99.90;;;8.80;100.00;100377.50;4154076;28;20022;-76
2023/10/22 07:49:22;;;;;;;8.02;1.27;;;9.60;99.90;;;8.82;100.00;100377.34;4152160;28;20092;-76
2023/10/22 07:51:26;;;;;;;4.97;1.52;;;9.60;99.90;;;8.81;100.00;100373.09;4147140;28;20037;-76
2023/10/22 07:53:26;;;;;;;7.95;1.90;;;9.60;99.90;;;8.83;100.00;100379.00;4138553;28;20060;-76
2023/10/22 07:55:27;;;;;;;11.43;2.28;;;9.70;99.90;;;8.84;100.00;100384.09;4166244;28;20022;-77
2023/10/22 07:57:28;;;;;;;8.25;2.88;;;9.70;99.90;;;8.86;100.00;100384.78;4153348;28;20021;-77
2023/10/22 07:59:29;;;;;;;7.97;1.90;;;9.60;99.90;;;8.86;100.00;100382.16;4154428;28;20025;-76
2023/10/22 08:01:30;;;;;;;11.85;3.10;;;9.70;99.90;;;8.89;100.00;100387.13;4164459;28;20025;-76
2023/10/22 08:03:32;;;;;;;11.88;4.15;;;9.70;99.90;;;8.91;100.00;100379.06;4153479;28;20053;-76
2023/10/22 08:05:33;;;;;;;10.23;4.63;;;9.70;99.90;;;8.94;100.00;100376.13;4153354;28;20472;-76
2023/10/22 08:07:34;;;;;;;7.32;3.80;;;9.70;99.90;;;8.96;100.00;100379.41;4153341;28;20033;-76
2023/10/22 08:09:34;;;;;;;10.95;4.22;;;9.80;99.90;;;8.98;100.00;100381.91;4153173;28;20026;-77
2023/10/22 08:11:35;;;;;;;12.00;4.80;;;9.80;99.90;;;9.03;100.00;100390.16;4147355;28;20066;-76
2023/10/22 08:13:36;;;;;;;11.90;4.55;;;9.80;99.90;;;9.03;100.00;100384.88;4169540;28;20022;-76
2023/10/22 08:15:37;;;;;;;9.02;4.20;;;9.90;99.90;;;9.11;100.00;100400.75;4169552;28;20109;-76
2023/10/22 08:17:38;;;;;;;9.18;4.10;;;9.90;99.90;;;9.13;100.00;100393.50;4169471;28;20392;-76
2023/10/22 08:19:39;;;;;;;7.53;4.10;;;9.90;99.90;;;9.19;100.00;100398.16;4166254;28;20030;-76
2023/10/22 08:21:40;;;;;;;10.38;5.07;;;10.00;99.90;;;9.24;100.00;100395.88;4159281;28;20030;-76
2023/10/22 08:23:41;;;;;;;10.02;5.13;;;10.00;99.90;;;9.30;100.00;100397.88;4159118;28;20488;-76